createdAt,value
2022-09-24T00:00:08.660Z,9.61
2022-09-24T00:02:37.594Z,9.63
2022-09-24T00:05:07.244Z,9.62
2022-09-24T00:07:36.152Z,9.64
2022-09-24T00:10:05.228Z,9.64
2022-09-24T00:12:34.885Z,9.65
2022-09-24T00:15:03.779Z,9.67
2022-09-24T00:17:34.059Z,9.68
2022-09-24T00:20:03.534Z,9.68
2022-09-24T00:22:34.304Z,9.69
2022-09-24T00:25:20.298Z,9.71
2022-09-24T00:27:49.382Z,9.75
2022-09-24T00:30:19.731Z,9.78
2022-09-24T00:32:50.020Z,9.78
2022-09-24T00:35:18.936Z,9.80
2022-09-24T00:37:47.753Z,9.81
2022-09-24T00:40:16.968Z,9.84
2022-09-24T00:42:45.909Z,9.88
2022-09-24T00:45:14.816Z,9.90
2022-09-24T00:47:46.909Z,9.94
2022-09-24T00:50:20.518Z,9.97
2022-09-24T00:52:57.338Z,10.01
2022-09-24T00:55:27.903Z,10.03
2022-09-24T00:58:00.784Z,10.03
2022-09-24T01:00:30.369Z,10.07
2022-09-24T01:03:05.423Z,10.09
2022-09-24T01:05:37.376Z,10.12
2022-09-24T01:08:07.869Z,10.15
2022-09-24T01:10:49.341Z,10.21
2022-09-24T01:13:34.873Z,10.24
2022-09-24T01:16:09.695Z,10.25
2022-09-24T01:18:52.600Z,10.28
2022-09-24T01:21:37.146Z,9.98
2022-09-24T01:24:55.720Z,10.08
2022-09-24T01:27:43.234Z,10.32
2022-09-24T01:30:17.732Z,10.32
2022-09-24T01:32:53.931Z,10.31
2022-09-24T01:35:29.649Z,10.28
2022-09-24T01:38:04.044Z,10.26
2022-09-24T01:40:40.800Z,10.24
2022-09-24T01:43:14.497Z,10.21
2022-09-24T01:45:46.123Z,10.21
2022-09-24T01:48:19.394Z,10.21
2022-09-24T01:50:56.518Z,10.22
2022-09-24T01:53:29.822Z,10.20
2022-09-24T01:56:03.720Z,10.20
2022-09-24T01:58:40.054Z,10.18
2022-09-24T02:01:16.021Z,10.15
2022-09-24T02:03:50.536Z,10.14
2022-09-24T02:06:24.453Z,10.14
2022-09-24T02:08:53.483Z,10.13
2022-09-24T02:11:24.403Z,10.10
2022-09-24T02:14:01.923Z,9.17
2022-09-24T02:16:37.230Z,10.09
2022-09-24T02:19:23.542Z,10.12
2022-09-24T02:21:53.692Z,10.12
2022-09-24T02:24:32.326Z,10.12
2022-09-24T02:27:01.451Z,10.09
2022-09-24T02:29:34.729Z,10.09
2022-09-24T02:32:08.042Z,10.05
2022-09-24T02:34:40.141Z,10.09
2022-09-24T02:37:11.676Z,10.12
2022-09-24T02:39:40.677Z,10.13
2022-09-24T02:42:13.790Z,10.14
2022-09-24T02:44:42.655Z,10.14
2022-09-24T02:47:13.238Z,10.14
2022-09-24T02:49:42.467Z,10.17
2022-09-24T02:52:13.286Z,10.20
2022-09-24T02:54:42.775Z,10.21
2022-09-24T02:57:11.949Z,10.22
2022-09-24T02:59:40.889Z,10.21
2022-09-24T03:02:15.340Z,10.20
2022-09-24T03:04:47.253Z,10.18
2022-09-24T03:07:20.465Z,10.19
2022-09-24T03:09:49.668Z,10.20
2022-09-24T03:12:18.593Z,10.21
2022-09-24T03:14:48.977Z,10.20
2022-09-24T03:17:19.280Z,10.18
2022-09-24T03:19:48.200Z,10.16
2022-09-24T03:22:18.233Z,10.13
2022-09-24T03:24:47.377Z,10.10
2022-09-24T03:27:16.324Z,10.08
2022-09-24T03:30:05.467Z,10.03
2022-09-24T03:32:35.970Z,10.03
2022-09-24T03:35:05.064Z,10.04
2022-09-24T03:37:37.208Z,10.01
2022-09-24T03:40:08.134Z,9.95
2022-09-24T03:42:37.085Z,9.88
2022-09-24T03:45:06.861Z,9.80
2022-09-24T03:47:37.431Z,9.75
2022-09-24T03:50:07.236Z,9.74
2022-09-24T03:52:36.105Z,9.71
2022-09-24T03:55:05.094Z,9.69
2022-09-24T03:57:34.021Z,9.66
2022-09-24T04:00:03.122Z,9.67
2022-09-24T04:02:36.917Z,9.67
2022-09-24T04:05:06.345Z,9.67
2022-09-24T04:07:35.183Z,9.67
2022-09-24T04:10:09.618Z,9.70
2022-09-24T04:12:40.062Z,9.73
2022-09-24T04:15:12.305Z,9.71
2022-09-24T04:17:42.508Z,9.70
2022-09-24T04:20:17.498Z,9.70
2022-09-24T04:22:50.596Z,9.70
2022-09-24T04:25:19.895Z,9.69
2022-09-24T04:27:55.044Z,9.72
2022-09-24T04:30:24.510Z,9.71
2022-09-24T04:32:55.151Z,9.71
2022-09-24T04:35:25.101Z,9.69
2022-09-24T04:37:54.180Z,9.69
2022-09-24T04:40:23.126Z,9.68
2022-09-24T04:42:52.696Z,9.69
2022-09-24T04:45:22.020Z,9.71
2022-09-24T04:47:56.253Z,9.75
2022-09-24T04:50:25.874Z,9.76
2022-09-24T04:52:55.238Z,9.78
2022-09-24T04:55:25.104Z,9.80
2022-09-24T04:57:56.370Z,9.82
2022-09-24T05:00:25.801Z,9.87
2022-09-24T05:03:04.373Z,9.93
2022-09-24T05:05:33.784Z,10.01
2022-09-24T05:08:03.244Z,10.07
2022-09-24T05:10:34.734Z,10.14
2022-09-24T05:13:03.687Z,10.21
2022-09-24T05:15:32.624Z,10.26
2022-09-24T05:18:03.010Z,10.35
2022-09-24T05:20:32.143Z,10.43
2022-09-24T05:23:03.152Z,10.50
2022-09-24T05:25:32.156Z,10.56
2022-09-24T05:28:01.902Z,10.63
2022-09-24T05:30:30.758Z,10.69
2022-09-24T05:33:01.100Z,10.75
2022-09-24T05:35:30.062Z,10.87
2022-09-24T05:38:00.903Z,10.98
2022-09-24T05:40:47.391Z,11.08
2022-09-24T05:43:17.038Z,11.18
2022-09-24T05:45:47.118Z,11.30
2022-09-24T05:48:18.685Z,11.37
2022-09-24T05:50:50.857Z,11.41
2022-09-24T05:53:19.846Z,11.45
2022-09-24T05:55:51.256Z,11.48
2022-09-24T05:58:20.784Z,11.51
2022-09-24T06:00:49.954Z,11.55
2022-09-24T06:03:21.288Z,11.56
2022-09-24T06:05:52.090Z,11.60
2022-09-24T06:08:22.717Z,11.63
2022-09-24T06:10:52.047Z,11.63
2022-09-24T06:13:22.735Z,11.66
2022-09-24T06:15:52.104Z,11.69
2022-09-24T06:18:22.478Z,11.76
2022-09-24T06:20:51.387Z,11.80
2022-09-24T06:23:20.304Z,11.87
2022-09-24T06:25:52.165Z,11.97
2022-09-24T06:28:24.180Z,12.07
2022-09-24T06:30:55.141Z,12.16
2022-09-24T06:33:26.583Z,12.24
2022-09-24T06:35:55.567Z,12.31
2022-09-24T06:38:24.514Z,12.38
2022-09-24T06:40:53.698Z,12.38
2022-09-24T06:43:22.649Z,12.49
2022-09-24T06:45:54.213Z,12.62
2022-09-24T06:48:25.035Z,12.82
2022-09-24T06:50:56.713Z,12.95
2022-09-24T06:53:28.784Z,13.10
2022-09-24T06:56:00.753Z,13.20
2022-09-24T06:58:37.314Z,13.30
2022-09-24T07:01:08.030Z,13.38
2022-09-24T07:03:40.967Z,13.42
2022-09-24T07:06:09.832Z,13.39
2022-09-24T07:08:38.762Z,13.34
2022-09-24T07:11:07.906Z,13.33
2022-09-24T07:13:36.831Z,13.35
2022-09-24T07:16:07.969Z,13.42
2022-09-24T07:18:39.517Z,13.49
2022-09-24T07:21:12.813Z,13.64
2022-09-24T07:23:43.728Z,13.82
2022-09-24T07:26:12.915Z,13.98
2022-09-24T07:28:43.946Z,14.17
2022-09-24T07:31:12.911Z,14.29
2022-09-24T07:33:46.909Z,14.38
2022-09-24T07:36:19.596Z,14.50
2022-09-24T07:38:49.382Z,14.54
2022-09-24T07:41:20.778Z,14.64
2022-09-24T07:43:51.756Z,14.80
2022-09-24T07:46:24.610Z,14.87
2022-09-24T07:48:56.195Z,14.86
2022-09-24T07:51:28.787Z,14.87
2022-09-24T07:53:59.911Z,14.87
2022-09-24T07:56:28.988Z,14.76
2022-09-24T07:58:57.924Z,14.66
2022-09-24T08:01:29.673Z,14.64
2022-09-24T08:03:59.670Z,14.71
2022-09-24T08:06:38.328Z,14.82
2022-09-24T08:09:08.958Z,14.84
2022-09-24T08:11:38.305Z,14.86
2022-09-24T08:14:08.808Z,15.06
2022-09-24T08:16:39.764Z,15.37
2022-09-24T08:19:13.756Z,15.73
2022-09-24T08:22:39.769Z,16.06
2022-09-24T08:25:11.203Z,16.24
2022-09-24T08:27:40.585Z,16.31
2022-09-24T08:30:10.725Z,16.45
2022-09-24T08:32:39.683Z,16.56
2022-09-24T08:35:09.951Z,16.64
2022-09-24T08:37:39.142Z,16.87
2022-09-24T08:40:16.194Z,17.09
2022-09-24T08:42:52.118Z,17.31
2022-09-24T08:45:38.578Z,17.23
2022-09-24T08:48:15.775Z,17.20
2022-09-24T08:50:57.869Z,17.24
2022-09-24T08:53:34.995Z,16.91
2022-09-24T08:56:07.582Z,17.11
2022-09-24T08:58:44.491Z,17.01
2022-09-24T09:01:25.878Z,16.87
2022-09-24T09:04:05.260Z,16.56
2022-09-24T09:06:57.160Z,16.56
2022-09-24T09:09:34.735Z,16.51
2022-09-24T09:12:12.433Z,16.29
2022-09-24T09:14:50.940Z,16.52
2022-09-24T09:17:42.435Z,16.43
2022-09-24T09:20:20.184Z,16.21
2022-09-24T09:22:51.454Z,16.12
2022-09-24T09:25:24.024Z,16.14
2022-09-24T09:27:59.526Z,16.22
2022-09-24T09:30:34.246Z,16.37
2022-09-24T09:33:21.633Z,16.63
2022-09-24T09:35:57.388Z,16.76
2022-09-24T09:38:35.675Z,16.75
2022-09-24T09:41:18.560Z,16.80
2022-09-24T09:43:48.987Z,16.88
2022-09-24T09:46:24.201Z,17.08
2022-09-24T09:48:57.477Z,17.34
2022-09-24T09:51:28.361Z,17.62
2022-09-24T09:53:58.802Z,18.07
2022-09-24T09:56:30.288Z,18.33
2022-09-24T09:59:17.223Z,18.44
2022-09-24T10:01:48.992Z,18.42
2022-09-24T10:04:39.333Z,18.37
2022-09-24T10:07:10.788Z,18.43
2022-09-24T10:09:42.316Z,18.42
2022-09-24T10:12:18.241Z,18.25
2022-09-24T10:15:02.044Z,17.51
2022-09-24T10:17:35.479Z,18.43
2022-09-24T10:20:11.418Z,18.49
2022-09-24T10:22:47.995Z,18.55
2022-09-24T10:25:26.350Z,18.55
2022-09-24T10:28:17.143Z,18.53
2022-09-24T10:31:00.130Z,18.53
2022-09-24T10:33:36.990Z,18.57
2022-09-24T10:36:07.809Z,18.66
2022-09-24T10:38:36.549Z,18.83
2022-09-24T10:41:17.274Z,19.02
2022-09-24T10:43:53.491Z,19.07
2022-09-24T10:47:14.111Z,19.10
2022-09-24T10:50:08.843Z,19.22
2022-09-24T10:52:48.739Z,19.61
2022-09-24T10:55:34.300Z,19.73
2022-09-24T10:58:09.488Z,19.87
2022-09-24T11:00:52.138Z,20.08
2022-09-24T11:04:12.766Z,20.24
2022-09-24T11:06:58.952Z,19.65
2022-09-24T11:09:42.160Z,19.71
2022-09-24T11:12:26.451Z,19.91
2022-09-24T11:15:19.541Z,19.84
2022-09-24T11:18:08.466Z,19.70
2022-09-24T11:20:43.443Z,19.27
2022-09-24T11:23:52.276Z,18.97
2022-09-24T11:26:30.550Z,19.33
2022-09-24T11:29:26.074Z,18.27
2022-09-24T11:32:06.948Z,19.57
2022-09-24T11:35:06.465Z,19.40
2022-09-24T11:37:59.885Z,19.20
2022-09-24T11:41:04.267Z,19.67
2022-09-24T11:44:18.766Z,19.85
2022-09-24T11:47:02.917Z,19.66
2022-09-24T11:50:01.971Z,19.46
2022-09-24T11:52:40.182Z,19.22
2022-09-24T11:55:21.320Z,17.45
2022-09-24T11:57:58.654Z,18.26
2022-09-24T12:00:35.958Z,18.14
2022-09-24T12:03:15.443Z,18.34
2022-09-24T12:05:50.624Z,17.24
2022-09-24T12:08:23.580Z,18.00
2022-09-24T12:11:01.223Z,16.32
2022-09-24T12:13:37.934Z,17.17
2022-09-24T12:16:13.676Z,17.52
2022-09-24T12:18:51.601Z,17.16
2022-09-24T12:21:28.199Z,17.44
2022-09-24T12:24:03.515Z,17.39
2022-09-24T12:26:39.461Z,17.39
2022-09-24T12:29:51.564Z,17.31
2022-09-24T12:32:48.429Z,17.03
2022-09-24T12:35:26.764Z,17.22
2022-09-24T12:38:05.785Z,17.22
2022-09-24T12:41:21.129Z,17.22
2022-09-24T12:44:00.225Z,17.16
2022-09-24T12:46:34.569Z,17.11
2022-09-24T12:49:04.018Z,17.03
2022-09-24T12:51:39.502Z,16.94
2022-09-24T12:54:22.511Z,16.88
2022-09-24T12:56:51.747Z,16.90
2022-09-24T12:59:30.069Z,17.01
2022-09-24T13:02:16.766Z,17.21
2022-09-24T13:04:52.969Z,17.35
2022-09-24T13:07:34.022Z,17.38
2022-09-24T13:10:29.447Z,17.23
2022-09-24T13:13:00.196Z,17.36
2022-09-24T13:15:36.583Z,17.36
2022-09-24T13:18:24.372Z,17.03
2022-09-24T13:21:05.809Z,17.24
2022-09-24T13:23:46.357Z,17.22
2022-09-24T13:26:28.275Z,17.19
2022-09-24T13:29:00.760Z,17.03
2022-09-24T13:31:44.864Z,17.28
2022-09-24T13:34:23.190Z,17.01
2022-09-24T13:37:01.605Z,17.33
2022-09-24T13:39:36.743Z,17.35
2022-09-24T13:42:16.180Z,17.33
2022-09-24T13:44:48.726Z,17.29
2022-09-24T13:47:29.201Z,17.23
2022-09-24T13:50:09.290Z,17.12
2022-09-24T13:52:43.238Z,17.04
2022-09-24T13:55:19.775Z,16.96
2022-09-24T13:57:49.663Z,16.91
2022-09-24T14:00:25.362Z,16.91
2022-09-24T14:03:05.168Z,16.96
2022-09-24T14:05:38.263Z,17.03
2022-09-24T14:08:10.751Z,17.16
2022-09-24T14:10:40.176Z,17.24
2022-09-24T14:13:19.331Z,17.35
2022-09-24T14:16:00.158Z,17.45
2022-09-24T14:18:31.234Z,17.44
2022-09-24T14:21:06.395Z,17.44
2022-09-24T14:23:41.443Z,17.39
2022-09-24T14:26:18.420Z,17.27
2022-09-24T14:28:48.854Z,17.12
2022-09-24T14:31:18.111Z,17.04
2022-09-24T14:33:49.434Z,16.90
2022-09-24T14:36:18.884Z,16.78
2022-09-24T14:38:57.666Z,16.53
2022-09-24T14:41:31.551Z,16.52
2022-09-24T14:44:03.831Z,16.43
2022-09-24T14:46:38.004Z,16.31
2022-09-24T14:49:19.659Z,16.28
2022-09-24T14:51:57.341Z,16.46
2022-09-24T14:54:32.851Z,16.72
2022-09-24T14:57:12.785Z,16.79
2022-09-24T14:59:42.921Z,16.87
2022-09-24T15:02:19.272Z,16.88
2022-09-24T15:04:54.721Z,16.86
2022-09-24T15:07:27.296Z,16.61
2022-09-24T15:09:58.252Z,16.96
2022-09-24T15:12:31.225Z,17.05
2022-09-24T15:15:01.692Z,17.14
2022-09-24T15:17:34.294Z,17.19
2022-09-24T15:20:05.792Z,17.24
2022-09-24T15:22:34.671Z,17.24
2022-09-24T15:25:03.532Z,17.21
2022-09-24T15:27:34.093Z,17.18
2022-09-24T15:30:05.292Z,17.14
2022-09-24T15:32:36.734Z,17.11
2022-09-24T15:35:09.571Z,17.10
2022-09-24T15:37:40.495Z,17.09
2022-09-24T15:40:20.637Z,17.11
2022-09-24T15:42:49.829Z,17.09
2022-09-24T15:45:21.417Z,17.05
2022-09-24T15:47:51.210Z,17.03
2022-09-24T15:50:23.814Z,16.93
2022-09-24T15:52:56.698Z,16.84
2022-09-24T15:55:25.738Z,16.81
2022-09-24T15:57:55.457Z,16.65
2022-09-24T16:00:26.226Z,16.53
2022-09-24T16:02:58.061Z,16.28
2022-09-24T16:05:28.388Z,16.42
2022-09-24T16:07:57.163Z,16.32
2022-09-24T16:10:25.992Z,16.17
2022-09-24T16:12:54.832Z,16.07
2022-09-24T16:15:23.807Z,15.98
2022-09-24T16:17:53.046Z,15.95
2022-09-24T16:20:21.909Z,15.95
2022-09-24T16:22:52.101Z,15.99
2022-09-24T16:25:21.267Z,15.90
2022-09-24T16:27:51.026Z,15.79
2022-09-24T16:30:20.085Z,15.67
2022-09-24T16:32:48.883Z,15.57
2022-09-24T16:35:18.026Z,15.49
2022-09-24T16:37:46.883Z,15.35
2022-09-24T16:40:17.451Z,15.21
2022-09-24T16:42:46.394Z,15.05
2022-09-24T16:45:15.299Z,14.95
2022-09-24T16:47:44.145Z,14.86
2022-09-24T16:50:12.902Z,14.77
2022-09-24T16:52:42.978Z,14.74
2022-09-24T16:55:12.262Z,14.65
2022-09-24T16:57:42.465Z,14.58
2022-09-24T17:00:13.363Z,14.44
2022-09-24T17:02:42.247Z,14.54
2022-09-24T17:05:11.316Z,14.52
2022-09-24T17:07:40.215Z,14.44
2022-09-24T17:10:16.237Z,14.30
2022-09-24T17:12:49.380Z,14.21
2022-09-24T17:15:20.579Z,14.08
2022-09-24T17:17:50.891Z,13.94
2022-09-24T17:20:20.290Z,13.37
2022-09-24T17:22:49.914Z,13.66
2022-09-24T17:25:22.835Z,13.56
2022-09-24T17:27:53.236Z,13.47
2022-09-24T17:30:22.226Z,13.45
2022-09-24T17:32:51.042Z,13.42
2022-09-24T17:35:19.943Z,13.45
2022-09-24T17:37:48.738Z,13.23
2022-09-24T17:40:23.650Z,13.62
2022-09-24T17:42:54.979Z,13.62
2022-09-24T17:45:23.861Z,13.54
2022-09-24T17:48:00.462Z,13.45
2022-09-24T17:50:29.950Z,13.39
2022-09-24T17:53:00.029Z,13.33
2022-09-24T17:55:28.952Z,13.26
2022-09-24T17:57:59.250Z,13.17
2022-09-24T18:00:28.303Z,13.08
2022-09-24T18:02:57.156Z,13.10
2022-09-24T18:05:33.453Z,13.08
2022-09-24T18:08:02.500Z,13.05
2022-09-24T18:10:31.347Z,12.98
2022-09-24T18:13:01.918Z,12.90
2022-09-24T18:15:31.547Z,12.78
2022-09-24T18:18:00.439Z,12.70
2022-09-24T18:20:31.899Z,12.60
2022-09-24T18:23:00.709Z,12.52
2022-09-24T18:25:29.462Z,12.54
2022-09-24T18:28:02.726Z,12.54
2022-09-24T18:30:31.936Z,12.48
2022-09-24T18:33:01.075Z,12.43
2022-09-24T18:35:35.977Z,12.38
2022-09-24T18:38:06.589Z,12.33
2022-09-24T18:40:45.879Z,12.30
2022-09-24T18:43:16.489Z,12.24
2022-09-24T18:45:45.834Z,12.18
2022-09-24T18:48:14.781Z,12.18
2022-09-24T18:50:44.804Z,12.14
2022-09-24T18:53:13.992Z,12.08
2022-09-24T18:55:44.164Z,12.02
2022-09-24T18:58:15.561Z,11.94
2022-09-24T19:00:54.183Z,11.88
2022-09-24T19:03:24.296Z,11.81
2022-09-24T19:05:55.063Z,11.75
2022-09-24T19:08:26.192Z,11.47
2022-09-24T19:11:03.742Z,11.73
2022-09-24T19:14:01.770Z,11.68
2022-09-24T19:16:34.040Z,11.70
2022-09-24T19:19:03.778Z,11.69
2022-09-24T19:21:32.666Z,11.73
2022-09-24T19:24:01.863Z,11.76
2022-09-24T19:26:32.890Z,11.73
2022-09-24T19:29:02.503Z,11.74
2022-09-24T19:31:35.957Z,11.73
2022-09-24T19:34:06.027Z,11.84
2022-09-24T19:36:43.651Z,11.86
2022-09-24T19:39:15.157Z,11.82
2022-09-24T19:41:44.606Z,11.78
2022-09-24T19:44:13.997Z,11.75
2022-09-24T19:46:44.728Z,11.69
2022-09-24T19:49:13.808Z,11.66
2022-09-24T19:51:42.686Z,11.62
2022-09-24T19:54:12.368Z,11.57
2022-09-24T19:56:41.532Z,11.51
2022-09-24T19:59:11.001Z,11.47
2022-09-24T20:01:40.620Z,11.43
2022-09-24T20:04:11.232Z,11.37
2022-09-24T20:06:40.670Z,11.37
2022-09-24T20:09:09.968Z,11.32
2022-09-24T20:11:38.905Z,11.26
2022-09-24T20:14:11.533Z,11.25
2022-09-24T20:16:42.848Z,11.22
2022-09-24T20:19:15.509Z,11.20
2022-09-24T20:21:44.832Z,11.19
2022-09-24T20:24:14.369Z,11.08
2022-09-24T20:27:00.513Z,11.01
2022-09-24T20:29:29.352Z,10.94
2022-09-24T20:31:58.110Z,10.90
2022-09-24T20:34:31.797Z,10.87
2022-09-24T20:37:01.677Z,10.82
2022-09-24T20:39:31.654Z,10.82
2022-09-24T20:42:02.238Z,10.82
2022-09-24T20:44:31.256Z,10.88
2022-09-24T20:47:03.118Z,10.94
2022-09-24T20:49:34.858Z,11.04
2022-09-24T20:52:05.693Z,11.15
2022-09-24T20:54:34.835Z,11.23
2022-09-24T20:57:07.429Z,11.30
2022-09-24T20:59:36.331Z,11.34
2022-09-24T21:02:05.405Z,11.35
2022-09-24T21:04:37.835Z,11.35
2022-09-24T21:07:06.744Z,11.30
2022-09-24T21:09:35.866Z,11.25
2022-09-24T21:12:05.037Z,11.20
2022-09-24T21:14:35.573Z,11.14
2022-09-24T21:17:06.459Z,11.11
2022-09-24T21:19:36.890Z,11.09
2022-09-24T21:22:06.249Z,11.03
2022-09-24T21:24:35.678Z,10.98
2022-09-24T21:27:05.437Z,10.90
2022-09-24T21:29:34.753Z,10.83
2022-09-24T21:32:13.954Z,10.81
2022-09-24T21:34:45.339Z,10.86
2022-09-24T21:37:15.996Z,10.92
2022-09-24T21:39:46.319Z,10.98
2022-09-24T21:42:20.134Z,11.00
2022-09-24T21:44:49.023Z,11.06
2022-09-24T21:47:22.069Z,11.08
2022-09-24T21:49:52.485Z,11.09
2022-09-24T21:52:21.519Z,11.09
2022-09-24T21:54:50.362Z,11.06
2022-09-24T21:57:19.295Z,11.06
2022-09-24T22:00:10.692Z,11.01
2022-09-24T22:02:43.296Z,10.93
2022-09-24T22:05:18.815Z,10.85
2022-09-24T22:07:50.469Z,10.78
2022-09-24T22:10:21.743Z,10.76
2022-09-24T22:13:00.391Z,10.77
2022-09-24T22:15:29.433Z,10.76
2022-09-24T22:17:59.260Z,10.74
2022-09-24T22:20:40.026Z,10.75
2022-09-24T22:23:09.042Z,10.78
2022-09-24T22:25:37.877Z,10.81
2022-09-24T22:28:07.029Z,10.86
2022-09-24T22:30:38.176Z,10.90
2022-09-24T22:33:32.848Z,10.93
2022-09-24T22:36:03.497Z,10.96
2022-09-24T22:38:35.029Z,10.92
2022-09-24T22:41:08.234Z,10.84
2022-09-24T22:43:44.696Z,10.71
2022-09-24T22:46:16.712Z,10.59
2022-09-24T22:48:48.474Z,10.47
2022-09-24T22:51:18.757Z,10.37
2022-09-24T22:53:47.981Z,10.25
2022-09-24T22:56:20.350Z,10.13
2022-09-24T22:58:53.996Z,10.01
2022-09-24T23:01:25.028Z,9.93
2022-09-24T23:03:55.885Z,9.86
2022-09-24T23:06:26.790Z,9.79
2022-09-24T23:08:57.089Z,9.72
2022-09-24T23:11:30.249Z,9.66
2022-09-24T23:14:00.919Z,9.61
2022-09-24T23:16:34.459Z,9.57
2022-09-24T23:19:06.567Z,9.51
2022-09-24T23:21:37.336Z,9.46
2022-09-24T23:24:08.362Z,9.42
2022-09-24T23:26:37.240Z,9.41
2022-09-24T23:29:09.267Z,9.38
2022-09-24T23:31:41.470Z,8.22
2022-09-24T23:34:14.496Z,9.32
2022-09-24T23:36:46.327Z,9.28
2022-09-24T23:39:15.512Z,9.26
2022-09-24T23:41:44.609Z,9.24
2022-09-24T23:44:13.946Z,9.18
2022-09-24T23:46:44.841Z,9.15
2022-09-24T23:49:14.881Z,9.11
2022-09-24T23:51:45.293Z,9.09
2022-09-24T23:54:15.782Z,9.07
2022-09-24T23:56:44.735Z,9.06
2022-09-24T23:59:18.005Z,9.04
